sensor_id;sensor_type;location;lat;lon;timestamp;temperature;humidity
63039;DHT22;49125;48.812;9.206;2022-10-17T00:00:43;13.20;99.90
63039;DHT22;49125;48.812;9.206;2022-10-17T00:03:09;13.20;99.90
63039;DHT22;49125;48.812;9.206;2022-10-17T00:05:42;13.20;99.90
63039;DHT22;49125;48.812;9.206;2022-10-17T00:08:08;13.10;99.90
63039;DHT22;49125;48.812;9.206;2022-10-17T00:10:34;13.10;99.90
63039;DHT22;49125;48.812;9.206;2022-10-17T00:13:00;13.10;99.90
63039;DHT22;49125;48.812;9.206;2022-10-17T00:15:26;13.10;99.90
63039;DHT22;49125;48.812;9.206;2022-10-17T00:17:51;13.10;99.90
63039;DHT22;49125;48.812;9.206;2022-10-17T00:20:17;13.00;99.90
63039;DHT22;49125;48.812;9.206;2022-10-17T00:22:43;13.00;99.90
63039;DHT22;49125;48.812;9.206;2022-10-17T00:25:09;13.00;99.90
63039;DHT22;49125;48.812;9.206;2022-10-17T00:27:36;13.00;99.90
63039;DHT22;49125;48.812;9.206;2022-10-17T00:30:03;13.00;99.90
63039;DHT22;49125;48.812;9.206;2022-10-17T00:32:29;12.90;99.90
63039;DHT22;49125;48.812;9.206;2022-10-17T00:34:54;12.90;99.90
63039;DHT22;49125;48.812;9.206;2022-10-17T00:37:20;12.90;99.90
63039;DHT22;49125;48.812;9.206;2022-10-17T00:39:46;12.90;99.90
63039;DHT22;49125;48.812;9.206;2022-10-17T00:42:12;12.90;99.90
63039;DHT22;49125;48.812;9.206;2022-10-17T00:47:10;12.90;99.90
63039;DHT22;49125;48.812;9.206;2022-10-17T00:49:39;12.90;99.90
63039;DHT22;49125;48.812;9.206;2022-10-17T00:52:11;12.90;99.90
63039;DHT22;49125;48.812;9.206;2022-10-17T00:54:41;12.90;99.90
63039;DHT22;49125;48.812;9.206;2022-10-17T00:57:08;12.90;99.90
63039;DHT22;49125;48.812;9.206;2022-10-17T00:59:35;12.90;99.90
63039;DHT22;49125;48.812;9.206;2022-10-17T01:02:13;12.90;99.90
63039;DHT22;49125;48.812;9.206;2022-10-17T01:04:41;12.90;99.90
63039;DHT22;49125;48.812;9.206;2022-10-17T01:07:08;13.00;99.90
63039;DHT22;49125;48.812;9.206;2022-10-17T01:09:34;13.00;99.90
63039;DHT22;49125;48.812;9.206;2022-10-17T01:12:20;13.10;99.90
63039;DHT22;49125;48.812;9.206;2022-10-17T01:15:11;13.00;99.90
63039;DHT22;49125;48.812;9.206;2022-10-17T01:17:57;13.00;99.90
63039;DHT22;49125;48.812;9.206;2022-10-17T01:23:42;13.00;99.90
63039;DHT22;49125;48.812;9.206;2022-10-17T01:26:25;13.00;99.90
63039;DHT22;49125;48.812;9.206;2022-10-17T01:31:56;13.00;99.90
63039;DHT22;49125;48.812;9.206;2022-10-17T01:34:40;13.00;99.90
63039;DHT22;49125;48.812;9.206;2022-10-17T01:37:11;13.00;99.90
63039;DHT22;49125;48.812;9.206;2022-10-17T01:39:45;13.00;99.90
63039;DHT22;49125;48.812;9.206;2022-10-17T01:42:27;13.10;99.90
63039;DHT22;49125;48.812;9.206;2022-10-17T01:45:02;13.00;99.90
63039;DHT22;49125;48.812;9.206;2022-10-17T01:47:30;13.00;99.90
63039;DHT22;49125;48.812;9.206;2022-10-17T01:50:04;13.00;99.90
63039;DHT22;49125;48.812;9.206;2022-10-17T01:52:40;13.00;99.90
63039;DHT22;49125;48.812;9.206;2022-10-17T01:55:08;13.00;99.90
63039;DHT22;49125;48.812;9.206;2022-10-17T01:57:38;13.00;99.90
63039;DHT22;49125;48.812;9.206;2022-10-17T02:00:10;12.90;99.90
63039;DHT22;49125;48.812;9.206;2022-10-17T02:02:38;12.90;99.90
63039;DHT22;49125;48.812;9.206;2022-10-17T02:05:05;12.90;99.90
63039;DHT22;49125;48.812;9.206;2022-10-17T02:07:31;12.80;99.90
63039;DHT22;49125;48.812;9.206;2022-10-17T02:09:56;12.70;99.90
63039;DHT22;49125;48.812;9.206;2022-10-17T02:12:36;12.70;99.90
63039;DHT22;49125;48.812;9.206;2022-10-17T02:21:07;12.60;99.90
63039;DHT22;49125;48.812;9.206;2022-10-17T02:26:37;12.60;99.90
63039;DHT22;49125;48.812;9.206;2022-10-17T02:29:09;12.50;99.90
63039;DHT22;49125;48.812;9.206;2022-10-17T02:31:43;12.50;99.90
63039;DHT22;49125;48.812;9.206;2022-10-17T02:34:18;12.50;99.90
63039;DHT22;49125;48.812;9.206;2022-10-17T02:36:49;12.50;99.90
63039;DHT22;49125;48.812;9.206;2022-10-17T02:39:16;12.50;99.90
63039;DHT22;49125;48.812;9.206;2022-10-17T02:41:43;12.40;99.90
63039;DHT22;49125;48.812;9.206;2022-10-17T02:44:10;12.40;99.90
63039;DHT22;49125;48.812;9.206;2022-10-17T02:46:37;12.40;99.90
63039;DHT22;49125;48.812;9.206;2022-10-17T02:49:16;12.40;99.90
63039;DHT22;49125;48.812;9.206;2022-10-17T02:57:07;12.20;99.90
63039;DHT22;49125;48.812;9.206;2022-10-17T02:59:37;12.20;99.90
63039;DHT22;49125;48.812;9.206;2022-10-17T03:02:06;12.10;99.90
63039;DHT22;49125;48.812;9.206;2022-10-17T03:04:32;12.10;99.90
63039;DHT22;49125;48.812;9.206;2022-10-17T03:06:58;12.10;99.90
63039;DHT22;49125;48.812;9.206;2022-10-17T03:09:23;12.10;99.90
63039;DHT22;49125;48.812;9.206;2022-10-17T03:11:49;12.10;99.90
63039;DHT22;49125;48.812;9.206;2022-10-17T03:14:15;12.10;99.90
63039;DHT22;49125;48.812;9.206;2022-10-17T03:16:40;12.00;99.90
63039;DHT22;49125;48.812;9.206;2022-10-17T03:19:06;12.00;99.90
63039;DHT22;49125;48.812;9.206;2022-10-17T03:21:32;12.00;99.90
63039;DHT22;49125;48.812;9.206;2022-10-17T03:23:57;11.90;99.90
63039;DHT22;49125;48.812;9.206;2022-10-17T03:26:23;11.90;99.90
63039;DHT22;49125;48.812;9.206;2022-10-17T03:28:49;11.90;99.90
63039;DHT22;49125;48.812;9.206;2022-10-17T03:31:15;11.90;99.90
63039;DHT22;49125;48.812;9.206;2022-10-17T03:33:41;11.90;99.90
63039;DHT22;49125;48.812;9.206;2022-10-17T03:36:11;11.90;99.90
63039;DHT22;49125;48.812;9.206;2022-10-17T03:38:38;11.90;99.90
63039;DHT22;49125;48.812;9.206;2022-10-17T03:41:04;11.90;99.90
63039;DHT22;49125;48.812;9.206;2022-10-17T03:43:30;11.80;99.90
63039;DHT22;49125;48.812;9.206;2022-10-17T03:45:56;11.90;99.90
63039;DHT22;49125;48.812;9.206;2022-10-17T03:48:23;11.90;99.90
63039;DHT22;49125;48.812;9.206;2022-10-17T03:50:49;11.80;99.90
63039;DHT22;49125;48.812;9.206;2022-10-17T03:53:14;11.80;99.90
63039;DHT22;49125;48.812;9.206;2022-10-17T03:55:40;11.80;99.90
63039;DHT22;49125;48.812;9.206;2022-10-17T03:58:05;11.80;99.90
63039;DHT22;49125;48.812;9.206;2022-10-17T04:00:31;12.00;99.90
63039;DHT22;49125;48.812;9.206;2022-10-17T04:02:57;12.00;99.90
63039;DHT22;49125;48.812;9.206;2022-10-17T04:05:23;12.10;99.90
63039;DHT22;49125;48.812;9.206;2022-10-17T04:07:48;12.10;99.90
63039;DHT22;49125;48.812;9.206;2022-10-17T04:10:14;12.10;99.90
63039;DHT22;49125;48.812;9.206;2022-10-17T04:12:39;12.10;99.90
63039;DHT22;49125;48.812;9.206;2022-10-17T04:15:06;12.10;99.90
63039;DHT22;49125;48.812;9.206;2022-10-17T04:17:31;12.10;99.90
63039;DHT22;49125;48.812;9.206;2022-10-17T04:19:57;12.10;99.90
63039;DHT22;49125;48.812;9.206;2022-10-17T04:22:22;12.10;99.90
63039;DHT22;49125;48.812;9.206;2022-10-17T04:24:48;12.10;99.90
63039;DHT22;49125;48.812;9.206;2022-10-17T04:27:13;12.20;99.90
63039;DHT22;49125;48.812;9.206;2022-10-17T04:29:39;12.20;99.90
63039;DHT22;49125;48.812;9.206;2022-10-17T04:32:05;12.30;99.90
63039;DHT22;49125;48.812;9.206;2022-10-17T04:34:30;12.30;99.90
63039;DHT22;49125;48.812;9.206;2022-10-17T04:36:56;12.40;99.90
63039;DHT22;49125;48.812;9.206;2022-10-17T04:39:21;12.40;99.90
63039;DHT22;49125;48.812;9.206;2022-10-17T04:41:47;12.50;99.90
63039;DHT22;49125;48.812;9.206;2022-10-17T04:44:12;12.50;99.90
63039;DHT22;49125;48.812;9.206;2022-10-17T04:46:38;12.60;99.90
63039;DHT22;49125;48.812;9.206;2022-10-17T04:49:04;12.60;99.90
63039;DHT22;49125;48.812;9.206;2022-10-17T04:51:29;12.60;99.90
63039;DHT22;49125;48.812;9.206;2022-10-17T04:53:55;12.70;99.90
63039;DHT22;49125;48.812;9.206;2022-10-17T04:56:22;12.70;99.90
63039;DHT22;49125;48.812;9.206;2022-10-17T04:58:48;12.70;99.90
63039;DHT22;49125;48.812;9.206;2022-10-17T05:01:19;12.70;99.90
63039;DHT22;49125;48.812;9.206;2022-10-17T05:03:46;12.70;99.90
63039;DHT22;49125;48.812;9.206;2022-10-17T05:06:13;12.70;99.90
63039;DHT22;49125;48.812;9.206;2022-10-17T05:08:39;12.80;99.90
63039;DHT22;49125;48.812;9.206;2022-10-17T05:11:24;12.80;99.90
63039;DHT22;49125;48.812;9.206;2022-10-17T05:13:55;12.80;99.90
63039;DHT22;49125;48.812;9.206;2022-10-17T05:16:21;12.90;99.90
63039;DHT22;49125;48.812;9.206;2022-10-17T05:18:48;12.90;99.90
63039;DHT22;49125;48.812;9.206;2022-10-17T05:21:14;12.90;99.90
63039;DHT22;49125;48.812;9.206;2022-10-17T05:23:40;12.90;99.90
63039;DHT22;49125;48.812;9.206;2022-10-17T05:26:05;13.00;99.90
63039;DHT22;49125;48.812;9.206;2022-10-17T05:28:31;13.00;99.90
63039;DHT22;49125;48.812;9.206;2022-10-17T05:30:56;13.00;99.90
63039;DHT22;49125;48.812;9.206;2022-10-17T05:33:22;13.00;99.90
63039;DHT22;49125;48.812;9.206;2022-10-17T05:35:48;13.00;99.90
63039;DHT22;49125;48.812;9.206;2022-10-17T05:38:13;13.00;99.90
63039;DHT22;49125;48.812;9.206;2022-10-17T05:40:39;13.10;99.90
63039;DHT22;49125;48.812;9.206;2022-10-17T05:43:05;13.10;99.90
63039;DHT22;49125;48.812;9.206;2022-10-17T05:45:30;13.10;99.90
63039;DHT22;49125;48.812;9.206;2022-10-17T05:47:56;13.10;99.90
63039;DHT22;49125;48.812;9.206;2022-10-17T05:50:21;13.10;99.90
63039;DHT22;49125;48.812;9.206;2022-10-17T05:52:52;13.10;99.90
63039;DHT22;49125;48.812;9.206;2022-10-17T05:55:18;13.10;99.90
63039;DHT22;49125;48.812;9.206;2022-10-17T05:57:43;13.00;99.90
63039;DHT22;49125;48.812;9.206;2022-10-17T06:00:09;13.00;99.90
63039;DHT22;49125;48.812;9.206;2022-10-17T06:02:35;13.00;99.90
63039;DHT22;49125;48.812;9.206;2022-10-17T06:05:00;13.00;99.90
63039;DHT22;49125;48.812;9.206;2022-10-17T06:07:26;13.00;99.90
63039;DHT22;49125;48.812;9.206;2022-10-17T06:09:51;13.00;99.90
63039;DHT22;49125;48.812;9.206;2022-10-17T06:12:17;13.10;99.90
63039;DHT22;49125;48.812;9.206;2022-10-17T06:14:42;13.00;99.90
63039;DHT22;49125;48.812;9.206;2022-10-17T06:17:08;13.00;99.90
63039;DHT22;49125;48.812;9.206;2022-10-17T06:19:33;13.00;99.90
63039;DHT22;49125;48.812;9.206;2022-10-17T06:21:59;13.00;99.90
63039;DHT22;49125;48.812;9.206;2022-10-17T06:24:25;13.00;99.90
63039;DHT22;49125;48.812;9.206;2022-10-17T06:26:51;13.10;99.90
63039;DHT22;49125;48.812;9.206;2022-10-17T06:29:16;13.10;99.90
63039;DHT22;49125;48.812;9.206;2022-10-17T06:31:42;13.10;99.90
63039;DHT22;49125;48.812;9.206;2022-10-17T06:34:08;13.20;99.90
63039;DHT22;49125;48.812;9.206;2022-10-17T06:36:33;13.20;99.90
63039;DHT22;49125;48.812;9.206;2022-10-17T06:38:59;13.20;99.90
63039;DHT22;49125;48.812;9.206;2022-10-17T06:41:25;13.30;99.90
63039;DHT22;49125;48.812;9.206;2022-10-17T06:43:50;13.40;99.90
63039;DHT22;49125;48.812;9.206;2022-10-17T06:46:17;13.40;99.90
63039;DHT22;49125;48.812;9.206;2022-10-17T06:48:43;13.50;99.90
63039;DHT22;49125;48.812;9.206;2022-10-17T06:51:10;13.60;99.90
63039;DHT22;49125;48.812;9.206;2022-10-17T06:53:36;13.60;99.90
63039;DHT22;49125;48.812;9.206;2022-10-17T06:56:03;13.70;99.90
63039;DHT22;49125;48.812;9.206;2022-10-17T06:58:31;13.80;99.90
63039;DHT22;49125;48.812;9.206;2022-10-17T07:01:09;13.90;99.90
63039;DHT22;49125;48.812;9.206;2022-10-17T07:03:36;14.10;99.90
63039;DHT22;49125;48.812;9.206;2022-10-17T07:06:02;14.20;99.90
63039;DHT22;49125;48.812;9.206;2022-10-17T07:08:27;14.40;99.90
63039;DHT22;49125;48.812;9.206;2022-10-17T07:10:54;14.50;99.90
63039;DHT22;49125;48.812;9.206;2022-10-17T07:13:20;14.60;99.90
63039;DHT22;49125;48.812;9.206;2022-10-17T07:15:46;14.80;99.90
63039;DHT22;49125;48.812;9.206;2022-10-17T07:18:12;15.00;99.90
63039;DHT22;49125;48.812;9.206;2022-10-17T07:20:37;15.10;99.90
63039;DHT22;49125;48.812;9.206;2022-10-17T07:23:03;15.30;99.90
63039;DHT22;49125;48.812;9.206;2022-10-17T07:25:29;15.50;99.90
63039;DHT22;49125;48.812;9.206;2022-10-17T07:27:55;15.70;99.90
63039;DHT22;49125;48.812;9.206;2022-10-17T07:30:21;16.00;99.90
63039;DHT22;49125;48.812;9.206;2022-10-17T07:32:47;16.10;99.90
63039;DHT22;49125;48.812;9.206;2022-10-17T07:35:13;16.30;99.90
63039;DHT22;49125;48.812;9.206;2022-10-17T07:41:03;16.60;99.90
63039;DHT22;49125;48.812;9.206;2022-10-17T07:43:29;16.70;99.90
63039;DHT22;49125;48.812;9.206;2022-10-17T07:45:55;16.80;99.90
63039;DHT22;49125;48.812;9.206;2022-10-17T07:48:22;16.90;99.90
63039;DHT22;49125;48.812;9.206;2022-10-17T07:50:48;17.00;99.90
63039;DHT22;49125;48.812;9.206;2022-10-17T07:53:14;17.20;99.90
63039;DHT22;49125;48.812;9.206;2022-10-17T07:55:41;17.20;99.90
63039;DHT22;49125;48.812;9.206;2022-10-17T07:58:08;17.40;99.90
63039;DHT22;49125;48.812;9.206;2022-10-17T08:00:34;17.50;99.90
63039;DHT22;49125;48.812;9.206;2022-10-17T08:03:00;17.60;99.90
63039;DHT22;49125;48.812;9.206;2022-10-17T08:05:26;17.90;99.90
63039;DHT22;49125;48.812;9.206;2022-10-17T08:07:52;18.00;99.90
63039;DHT22;49125;48.812;9.206;2022-10-17T08:10:17;18.10;99.90
63039;DHT22;49125;48.812;9.206;2022-10-17T08:12:43;18.20;99.90
63039;DHT22;49125;48.812;9.206;2022-10-17T08:15:09;18.20;99.90
63039;DHT22;49125;48.812;9.206;2022-10-17T08:17:36;18.40;99.90
63039;DHT22;49125;48.812;9.206;2022-10-17T08:20:06;18.50;99.90
63039;DHT22;49125;48.812;9.206;2022-10-17T08:22:32;18.60;99.90
63039;DHT22;49125;48.812;9.206;2022-10-17T08:24:58;18.80;99.90
63039;DHT22;49125;48.812;9.206;2022-10-17T08:27:23;19.00;99.90
63039;DHT22;49125;48.812;9.206;2022-10-17T08:29:51;19.20;99.90
63039;DHT22;49125;48.812;9.206;2022-10-17T08:32:22;19.30;99.90
63039;DHT22;49125;48.812;9.206;2022-10-17T08:34:50;19.30;99.90
63039;DHT22;49125;48.812;9.206;2022-10-17T08:37:15;19.40;99.90
63039;DHT22;49125;48.812;9.206;2022-10-17T08:39:41;19.50;99.90
63039;DHT22;49125;48.812;9.206;2022-10-17T08:47:11;19.60;99.90
63039;DHT22;49125;48.812;9.206;2022-10-17T08:49:57;19.70;99.90
63039;DHT22;49125;48.812;9.206;2022-10-17T08:52:39;19.80;99.90
63039;DHT22;49125;48.812;9.206;2022-10-17T08:55:15;20.00;99.90
63039;DHT22;49125;48.812;9.206;2022-10-17T08:57:42;20.10;99.90
63039;DHT22;49125;48.812;9.206;2022-10-17T09:00:16;20.30;99.90
63039;DHT22;49125;48.812;9.206;2022-10-17T09:16:46;21.90;99.30
63039;DHT22;49125;48.812;9.206;2022-10-17T09:19:19;22.00;98.60
63039;DHT22;49125;48.812;9.206;2022-10-17T09:22:12;21.90;99.00
63039;DHT22;49125;48.812;9.206;2022-10-17T09:24:49;21.80;98.40
63039;DHT22;49125;48.812;9.206;2022-10-17T09:27:33;21.80;98.50
63039;DHT22;49125;48.812;9.206;2022-10-17T09:32:50;22.00;98.30
63039;DHT22;49125;48.812;9.206;2022-10-17T09:35:16;22.10;99.00
63039;DHT22;49125;48.812;9.206;2022-10-17T09:37:42;22.30;98.30
63039;DHT22;49125;48.812;9.206;2022-10-17T09:40:18;22.50;97.90
63039;DHT22;49125;48.812;9.206;2022-10-17T09:42:46;22.50;98.70
63039;DHT22;49125;48.812;9.206;2022-10-17T09:45:17;22.60;99.30
63039;DHT22;49125;48.812;9.206;2022-10-17T09:50:32;22.90;97.80
63039;DHT22;49125;48.812;9.206;2022-10-17T09:53:14;23.00;97.80
63039;DHT22;49125;48.812;9.206;2022-10-17T09:55:50;23.20;98.60
63039;DHT22;49125;48.812;9.206;2022-10-17T09:58:19;23.40;97.40
63039;DHT22;49125;48.812;9.206;2022-10-17T10:00:46;23.50;98.10
63039;DHT22;49125;48.812;9.206;2022-10-17T10:03:18;23.60;98.20
63039;DHT22;49125;48.812;9.206;2022-10-17T10:06:12;23.70;97.40
63039;DHT22;49125;48.812;9.206;2022-10-17T10:08:49;23.70;96.60
63039;DHT22;49125;48.812;9.206;2022-10-17T10:11:15;23.60;96.80
63039;DHT22;49125;48.812;9.206;2022-10-17T10:13:42;23.60;96.90
63039;DHT22;49125;48.812;9.206;2022-10-17T10:16:30;23.90;98.00
63039;DHT22;49125;48.812;9.206;2022-10-17T10:18:56;24.30;98.00
63039;DHT22;49125;48.812;9.206;2022-10-17T10:21:24;24.70;97.60
63039;DHT22;49125;48.812;9.206;2022-10-17T10:31:51;25.60;95.60
63039;DHT22;49125;48.812;9.206;2022-10-17T10:34:28;25.90;95.60
63039;DHT22;49125;48.812;9.206;2022-10-17T10:37:13;26.30;95.50
63039;DHT22;49125;48.812;9.206;2022-10-17T10:39:47;26.70;94.40
63039;DHT22;49125;48.812;9.206;2022-10-17T10:44:52;26.90;93.90
63039;DHT22;49125;48.812;9.206;2022-10-17T10:47:24;27.10;92.80
63039;DHT22;49125;48.812;9.206;2022-10-17T10:49:52;27.50;93.00
63039;DHT22;49125;48.812;9.206;2022-10-17T10:52:44;27.80;91.40
63039;DHT22;49125;48.812;9.206;2022-10-17T10:55:25;27.90;91.20
63039;DHT22;49125;48.812;9.206;2022-10-17T10:57:55;28.40;91.10
63039;DHT22;49125;48.812;9.206;2022-10-17T11:00:24;28.80;90.80
63039;DHT22;49125;48.812;9.206;2022-10-17T11:03:08;29.30;89.40
63039;DHT22;49125;48.812;9.206;2022-10-17T11:05:54;29.60;89.20
63039;DHT22;49125;48.812;9.206;2022-10-17T11:08:43;30.30;88.80
63039;DHT22;49125;48.812;9.206;2022-10-17T11:14:02;30.50;83.40
63039;DHT22;49125;48.812;9.206;2022-10-17T11:16:51;30.90;80.60
63039;DHT22;49125;48.812;9.206;2022-10-17T11:19:27;31.40;80.90
63039;DHT22;49125;48.812;9.206;2022-10-17T11:24:39;32.40;76.20
63039;DHT22;49125;48.812;9.206;2022-10-17T11:27:07;32.80;75.30
63039;DHT22;49125;48.812;9.206;2022-10-17T11:29:34;33.10;73.30
63039;DHT22;49125;48.812;9.206;2022-10-17T11:32:11;33.30;73.50
63039;DHT22;49125;48.812;9.206;2022-10-17T11:34:44;33.60;71.30
63039;DHT22;49125;48.812;9.206;2022-10-17T11:37:17;33.80;66.90
63039;DHT22;49125;48.812;9.206;2022-10-17T11:39:59;34.10;67.10
63039;DHT22;49125;48.812;9.206;2022-10-17T11:42:31;34.30;65.50
63039;DHT22;49125;48.812;9.206;2022-10-17T11:45:13;34.60;64.60
63039;DHT22;49125;48.812;9.206;2022-10-17T11:47:49;34.40;60.90
63039;DHT22;49125;48.812;9.206;2022-10-17T11:50:27;34.50;64.10
63039;DHT22;49125;48.812;9.206;2022-10-17T11:53:01;35.10;60.40
63039;DHT22;49125;48.812;9.206;2022-10-17T11:55:29;35.50;57.90
63039;DHT22;49125;48.812;9.206;2022-10-17T12:01:16;36.50;54.00
63039;DHT22;49125;48.812;9.206;2022-10-17T12:03:59;37.10;54.80
63039;DHT22;49125;48.812;9.206;2022-10-17T12:06:58;37.50;53.80
63039;DHT22;49125;48.812;9.206;2022-10-17T12:09:41;37.70;49.10
63039;DHT22;49125;48.812;9.206;2022-10-17T12:12:08;37.70;48.10
63039;DHT22;49125;48.812;9.206;2022-10-17T12:14:42;37.60;46.00
63039;DHT22;49125;48.812;9.206;2022-10-17T12:17:33;37.50;43.80
63039;DHT22;49125;48.812;9.206;2022-10-17T12:25:31;38.00;44.50
63039;DHT22;49125;48.812;9.206;2022-10-17T12:30:48;38.70;43.00
63039;DHT22;49125;48.812;9.206;2022-10-17T12:33:17;39.00;43.10
63039;DHT22;49125;48.812;9.206;2022-10-17T12:35:50;39.00;40.60
63039;DHT22;49125;48.812;9.206;2022-10-17T12:45:49;38.70;42.00
63039;DHT22;49125;48.812;9.206;2022-10-17T12:51:09;38.50;38.90
63039;DHT22;49125;48.812;9.206;2022-10-17T13:01:44;38.10;41.10
63039;DHT22;49125;48.812;9.206;2022-10-17T13:04:10;38.00;39.80
63039;DHT22;49125;48.812;9.206;2022-10-17T13:06:42;38.10;39.90
63039;DHT22;49125;48.812;9.206;2022-10-17T13:11:45;38.50;41.10
63039;DHT22;49125;48.812;9.206;2022-10-17T13:14:15;38.80;40.60
63039;DHT22;49125;48.812;9.206;2022-10-17T13:17:01;37.80;40.50
63039;DHT22;49125;48.812;9.206;2022-10-17T13:19:40;36.60;43.00
63039;DHT22;49125;48.812;9.206;2022-10-17T13:24:44;35.00;45.20
63039;DHT22;49125;48.812;9.206;2022-10-17T13:27:31;34.00;45.00
63039;DHT22;49125;48.812;9.206;2022-10-17T13:29:59;33.90;45.90
63039;DHT22;49125;48.812;9.206;2022-10-17T13:32:37;33.70;45.50
63039;DHT22;49125;48.812;9.206;2022-10-17T13:35:09;33.60;47.00
63039;DHT22;49125;48.812;9.206;2022-10-17T13:37:36;33.40;46.20
63039;DHT22;49125;48.812;9.206;2022-10-17T13:40:04;33.30;46.10
63039;DHT22;49125;48.812;9.206;2022-10-17T13:42:36;33.30;47.10
63039;DHT22;49125;48.812;9.206;2022-10-17T13:45:03;32.70;46.30
63039;DHT22;49125;48.812;9.206;2022-10-17T13:47:37;32.40;46.80
63039;DHT22;49125;48.812;9.206;2022-10-17T13:50:04;32.50;46.80
63039;DHT22;49125;48.812;9.206;2022-10-17T13:52:30;32.60;46.50
63039;DHT22;49125;48.812;9.206;2022-10-17T13:55:07;32.90;47.20
63039;DHT22;49125;48.812;9.206;2022-10-17T13:57:33;32.80;46.70
63039;DHT22;49125;48.812;9.206;2022-10-17T14:00:18;32.30;46.30
63039;DHT22;49125;48.812;9.206;2022-10-17T14:02:44;31.10;46.20
63039;DHT22;49125;48.812;9.206;2022-10-17T14:05:15;30.10;48.20
63039;DHT22;49125;48.812;9.206;2022-10-17T14:10:22;28.60;50.40
63039;DHT22;49125;48.812;9.206;2022-10-17T14:12:49;27.80;51.20
63039;DHT22;49125;48.812;9.206;2022-10-17T14:15:16;27.40;52.80
63039;DHT22;49125;48.812;9.206;2022-10-17T14:17:43;27.10;53.00
63039;DHT22;49125;48.812;9.206;2022-10-17T14:20:18;26.60;52.80
63039;DHT22;49125;48.812;9.206;2022-10-17T14:22:44;26.40;52.80
63039;DHT22;49125;48.812;9.206;2022-10-17T14:25:39;26.20;52.90
63039;DHT22;49125;48.812;9.206;2022-10-17T14:30:46;25.70;54.00
63039;DHT22;49125;48.812;9.206;2022-10-17T14:33:26;25.50;55.50
63039;DHT22;49125;48.812;9.206;2022-10-17T14:35:55;25.20;56.00
63039;DHT22;49125;48.812;9.206;2022-10-17T14:38:21;25.10;56.40
63039;DHT22;49125;48.812;9.206;2022-10-17T14:41:00;25.00;56.20
63039;DHT22;49125;48.812;9.206;2022-10-17T14:43:29;25.00;57.60
63039;DHT22;49125;48.812;9.206;2022-10-17T14:46:01;24.90;56.90
63039;DHT22;49125;48.812;9.206;2022-10-17T14:48:28;24.80;58.30
63039;DHT22;49125;48.812;9.206;2022-10-17T14:51:17;24.70;58.30
63039;DHT22;49125;48.812;9.206;2022-10-17T14:54:03;24.60;58.40
63039;DHT22;49125;48.812;9.206;2022-10-17T14:56:36;24.60;58.40
63039;DHT22;49125;48.812;9.206;2022-10-17T14:59:03;24.50;58.80
63039;DHT22;49125;48.812;9.206;2022-10-17T15:01:30;24.40;59.90
63039;DHT22;49125;48.812;9.206;2022-10-17T15:03:56;24.20;59.50
63039;DHT22;49125;48.812;9.206;2022-10-17T15:06:32;24.10;61.10
63039;DHT22;49125;48.812;9.206;2022-10-17T15:08:59;24.00;61.80
63039;DHT22;49125;48.812;9.206;2022-10-17T15:11:24;23.90;61.90
63039;DHT22;49125;48.812;9.206;2022-10-17T15:13:50;23.80;63.20
63039;DHT22;49125;48.812;9.206;2022-10-17T15:16:25;23.70;62.90
63039;DHT22;49125;48.812;9.206;2022-10-17T15:18:52;23.60;63.70
63039;DHT22;49125;48.812;9.206;2022-10-17T15:21:20;23.60;64.90
63039;DHT22;49125;48.812;9.206;2022-10-17T15:23:46;23.40;63.60
63039;DHT22;49125;48.812;9.206;2022-10-17T15:26:14;23.40;65.80
63039;DHT22;49125;48.812;9.206;2022-10-17T15:28:40;23.30;66.50
63039;DHT22;49125;48.812;9.206;2022-10-17T15:31:12;23.30;67.00
63039;DHT22;49125;48.812;9.206;2022-10-17T15:33:38;23.20;67.00
63039;DHT22;49125;48.812;9.206;2022-10-17T15:36:04;23.10;69.20
63039;DHT22;49125;48.812;9.206;2022-10-17T15:38:30;23.10;68.00
63039;DHT22;49125;48.812;9.206;2022-10-17T15:40:55;23.10;68.80
63039;DHT22;49125;48.812;9.206;2022-10-17T15:43:21;23.10;70.20
63039;DHT22;49125;48.812;9.206;2022-10-17T15:45:47;23.00;70.90
63039;DHT22;49125;48.812;9.206;2022-10-17T15:48:20;23.00;71.00
63039;DHT22;49125;48.812;9.206;2022-10-17T15:50:50;22.90;72.20
63039;DHT22;49125;48.812;9.206;2022-10-17T15:53:15;22.80;73.20
63039;DHT22;49125;48.812;9.206;2022-10-17T15:55:41;22.70;74.40
63039;DHT22;49125;48.812;9.206;2022-10-17T15:58:13;22.50;75.20
63039;DHT22;49125;48.812;9.206;2022-10-17T16:00:39;22.40;76.30
63039;DHT22;49125;48.812;9.206;2022-10-17T16:03:05;22.20;77.80
63039;DHT22;49125;48.812;9.206;2022-10-17T16:05:30;22.20;80.00
63039;DHT22;49125;48.812;9.206;2022-10-17T16:07:56;22.00;82.40
63039;DHT22;49125;48.812;9.206;2022-10-17T16:10:22;21.90;83.90
63039;DHT22;49125;48.812;9.206;2022-10-17T16:12:49;21.80;85.10
63039;DHT22;49125;48.812;9.206;2022-10-17T16:15:19;21.70;87.10
63039;DHT22;49125;48.812;9.206;2022-10-17T16:17:48;21.60;89.40
63039;DHT22;49125;48.812;9.206;2022-10-17T16:20:13;21.50;90.20
63039;DHT22;49125;48.812;9.206;2022-10-17T16:22:41;21.50;91.20
63039;DHT22;49125;48.812;9.206;2022-10-17T16:27:46;21.20;92.50
63039;DHT22;49125;48.812;9.206;2022-10-17T16:30:13;21.10;93.50
63039;DHT22;49125;48.812;9.206;2022-10-17T16:32:39;20.90;94.00
63039;DHT22;49125;48.812;9.206;2022-10-17T16:35:05;20.80;94.70
63039;DHT22;49125;48.812;9.206;2022-10-17T16:37:31;20.60;95.70
63039;DHT22;49125;48.812;9.206;2022-10-17T16:39:57;20.40;96.50
63039;DHT22;49125;48.812;9.206;2022-10-17T16:42:23;20.30;96.80
63039;DHT22;49125;48.812;9.206;2022-10-17T16:44:50;20.10;97.40
63039;DHT22;49125;48.812;9.206;2022-10-17T16:47:16;20.00;97.90
63039;DHT22;49125;48.812;9.206;2022-10-17T16:49:42;19.90;98.40
63039;DHT22;49125;48.812;9.206;2022-10-17T16:52:10;19.70;98.40
63039;DHT22;49125;48.812;9.206;2022-10-17T16:54:36;19.70;99.20
63039;DHT22;49125;48.812;9.206;2022-10-17T16:57:03;19.50;99.40
63039;DHT22;49125;48.812;9.206;2022-10-17T16:59:28;19.40;99.70
63039;DHT22;49125;48.812;9.206;2022-10-17T17:01:54;19.30;99.90
63039;DHT22;49125;48.812;9.206;2022-10-17T17:04:20;19.20;99.90
63039;DHT22;49125;48.812;9.206;2022-10-17T17:06:45;19.20;99.90
63039;DHT22;49125;48.812;9.206;2022-10-17T17:09:11;19.00;99.90
63039;DHT22;49125;48.812;9.206;2022-10-17T17:11:37;19.00;99.90
63039;DHT22;49125;48.812;9.206;2022-10-17T17:14:03;18.90;99.90
63039;DHT22;49125;48.812;9.206;2022-10-17T17:16:30;18.80;99.90
63039;DHT22;49125;48.812;9.206;2022-10-17T17:19:05;18.80;99.90
63039;DHT22;49125;48.812;9.206;2022-10-17T17:21:32;18.60;99.90
63039;DHT22;49125;48.812;9.206;2022-10-17T17:23:59;18.60;99.90
63039;DHT22;49125;48.812;9.206;2022-10-17T17:26:27;18.50;99.90
63039;DHT22;49125;48.812;9.206;2022-10-17T17:28:53;18.50;99.90
63039;DHT22;49125;48.812;9.206;2022-10-17T17:31:24;18.40;99.90
63039;DHT22;49125;48.812;9.206;2022-10-17T17:33:51;18.40;99.90